Terminal Aerodrome Forecast
Issued by NWS

Current Version | Previous Version | Text Only | Print | Product List | Glossary On
Versions: 1 2 3 4 5 6 7 8 9 10 11 12 13 14 15 16 17
000
FTUS42 TJSJ 230500
TAFJMZ
TAF
TJMZ 230527Z 2306/2406 VRB05KT P6SM FEW030
     FM231430 27010KT P6SM SCT025
     FM231730 27010KT P6SM VCTS SCT025CB BKN040
     FM232200 07005KT P6SM SCT025 SCT040
      AMD NOT SKED TIL 231200=

USA.gov is the U.S. government's official web portal to all federal, state and local government web resources and services.